sensor_id;sensor_type;location;lat;lon;timestamp;P1;durP1;ratioP1;P2;durP2;ratioP2
36709;SDS011;22694;51.040;3.684;2023-01-06T00:01:53;1.55;;;0.80;;
36709;SDS011;22694;51.040;3.684;2023-01-06T00:04:19;1.40;;;0.80;;
36709;SDS011;22694;51.040;3.684;2023-01-06T00:06:44;1.48;;;0.52;;
36709;SDS011;22694;51.040;3.684;2023-01-06T00:09:10;0.85;;;0.45;;
36709;SDS011;22694;51.040;3.684;2023-01-06T00:11:36;2.20;;;0.82;;
36709;SDS011;22694;51.040;3.684;2023-01-06T00:14:01;1.30;;;0.70;;
36709;SDS011;22694;51.040;3.684;2023-01-06T00:16:27;1.50;;;0.88;;
36709;SDS011;22694;51.040;3.684;2023-01-06T00:18:54;0.75;;;0.70;;
36709;SDS011;22694;51.040;3.684;2023-01-06T00:21:21;1.10;;;0.73;;
36709;SDS011;22694;51.040;3.684;2023-01-06T00:23:47;1.73;;;0.80;;
36709;SDS011;22694;51.040;3.684;2023-01-06T00:26:12;1.65;;;0.70;;
36709;SDS011;22694;51.040;3.684;2023-01-06T00:28:38;1.10;;;0.60;;
36709;SDS011;22694;51.040;3.684;2023-01-06T00:31:05;1.45;;;0.60;;
36709;SDS011;22694;51.040;3.684;2023-01-06T00:33:35;3.92;;;0.73;;
36709;SDS011;22694;51.040;3.684;2023-01-06T00:36:01;1.15;;;0.40;;
36709;SDS011;22694;51.040;3.684;2023-01-06T00:38:28;0.82;;;0.73;;
36709;SDS011;22694;51.040;3.684;2023-01-06T00:40:54;2.10;;;0.80;;
36709;SDS011;22694;51.040;3.684;2023-01-06T00:43:20;2.00;;;0.60;;
36709;SDS011;22694;51.040;3.684;2023-01-06T00:45:46;0.95;;;0.63;;
36709;SDS011;22694;51.040;3.684;2023-01-06T00:48:12;1.40;;;0.55;;
36709;SDS011;22694;51.040;3.684;2023-01-06T00:50:37;1.35;;;0.55;;
36709;SDS011;22694;51.040;3.684;2023-01-06T00:53:03;0.82;;;0.70;;
36709;SDS011;22694;51.040;3.684;2023-01-06T00:55:29;1.40;;;0.70;;
36709;SDS011;22694;51.040;3.684;2023-01-06T00:57:54;1.17;;;0.75;;
36709;SDS011;22694;51.040;3.684;2023-01-06T01:00:20;0.50;;;0.50;;
36709;SDS011;22694;51.040;3.684;2023-01-06T01:02:46;0.68;;;0.50;;
36709;SDS011;22694;51.040;3.684;2023-01-06T01:05:12;0.80;;;0.45;;
36709;SDS011;22694;51.040;3.684;2023-01-06T01:07:38;1.75;;;0.43;;
36709;SDS011;22694;51.040;3.684;2023-01-06T01:10:05;2.10;;;0.88;;
36709;SDS011;22694;51.040;3.684;2023-01-06T01:12:31;1.30;;;0.50;;
36709;SDS011;22694;51.040;3.684;2023-01-06T01:14:57;1.58;;;0.60;;
36709;SDS011;22694;51.040;3.684;2023-01-06T01:17:24;0.65;;;0.40;;
36709;SDS011;22694;51.040;3.684;2023-01-06T01:19:51;2.90;;;0.60;;
36709;SDS011;22694;51.040;3.684;2023-01-06T01:22:19;1.20;;;0.73;;
36709;SDS011;22694;51.040;3.684;2023-01-06T01:24:45;1.23;;;0.52;;
36709;SDS011;22694;51.040;3.684;2023-01-06T01:27:11;1.33;;;0.70;;
36709;SDS011;22694;51.040;3.684;2023-01-06T01:29:37;1.23;;;0.50;;
36709;SDS011;22694;51.040;3.684;2023-01-06T01:32:03;0.40;;;0.40;;
36709;SDS011;22694;51.040;3.684;2023-01-06T01:34:28;1.42;;;0.60;;
36709;SDS011;22694;51.040;3.684;2023-01-06T01:36:54;1.15;;;0.60;;
36709;SDS011;22694;51.040;3.684;2023-01-06T01:39:22;1.38;;;0.55;;
36709;SDS011;22694;51.040;3.684;2023-01-06T01:41:50;2.15;;;0.60;;
36709;SDS011;22694;51.040;3.684;2023-01-06T01:47:25;0.80;;;0.60;;
36709;SDS011;22694;51.040;3.684;2023-01-06T01:49:55;1.00;;;0.70;;
36709;SDS011;22694;51.040;3.684;2023-01-06T01:52:23;0.52;;;0.40;;
36709;SDS011;22694;51.040;3.684;2023-01-06T01:54:49;0.68;;;0.40;;
36709;SDS011;22694;51.040;3.684;2023-01-06T01:57:28;3.10;;;0.70;;
36709;SDS011;22694;51.040;3.684;2023-01-06T01:59:58;1.83;;;0.63;;
36709;SDS011;22694;51.040;3.684;2023-01-06T02:02:24;0.52;;;0.50;;
36709;SDS011;22694;51.040;3.684;2023-01-06T02:04:53;1.35;;;0.43;;
36709;SDS011;22694;51.040;3.684;2023-01-06T02:07:20;1.45;;;0.40;;
36709;SDS011;22694;51.040;3.684;2023-01-06T02:09:52;0.50;;;0.47;;
36709;SDS011;22694;51.040;3.684;2023-01-06T02:12:33;1.35;;;0.55;;
36709;SDS011;22694;51.040;3.684;2023-01-06T02:14:59;1.08;;;0.40;;
36709;SDS011;22694;51.040;3.684;2023-01-06T02:17:30;1.33;;;0.52;;
36709;SDS011;22694;51.040;3.684;2023-01-06T02:34:10;1.15;;;0.50;;
36709;SDS011;22694;51.040;3.684;2023-01-06T02:45:22;0.50;;;0.50;;
36709;SDS011;22694;51.040;3.684;2023-01-06T02:50:52;0.52;;;0.50;;
36709;SDS011;22694;51.040;3.684;2023-01-06T02:53:21;0.95;;;0.55;;
36709;SDS011;22694;51.040;3.684;2023-01-06T02:55:55;0.75;;;0.30;;
36709;SDS011;22694;51.040;3.684;2023-01-06T03:03:49;1.10;;;0.40;;
36709;SDS011;22694;51.040;3.684;2023-01-06T03:06:17;0.70;;;0.40;;
36709;SDS011;22694;51.040;3.684;2023-01-06T03:08:48;0.80;;;0.35;;
36709;SDS011;22694;51.040;3.684;2023-01-06T03:11:17;0.82;;;0.50;;
36709;SDS011;22694;51.040;3.684;2023-01-06T03:13:54;1.30;;;0.68;;
36709;SDS011;22694;51.040;3.684;2023-01-06T03:16:34;0.70;;;0.35;;
36709;SDS011;22694;51.040;3.684;2023-01-06T03:18:59;0.77;;;0.50;;
36709;SDS011;22694;51.040;3.684;2023-01-06T03:21:29;0.50;;;0.30;;
36709;SDS011;22694;51.040;3.684;2023-01-06T03:23:59;0.30;;;0.30;;
36709;SDS011;22694;51.040;3.684;2023-01-06T03:26:25;0.50;;;0.38;;
36709;SDS011;22694;51.040;3.684;2023-01-06T03:28:51;0.85;;;0.40;;
36709;SDS011;22694;51.040;3.684;2023-01-06T03:31:20;0.90;;;0.50;;
36709;SDS011;22694;51.040;3.684;2023-01-06T03:39:17;0.77;;;0.60;;
36709;SDS011;22694;51.040;3.684;2023-01-06T03:41:49;0.77;;;0.50;;
36709;SDS011;22694;51.040;3.684;2023-01-06T03:47:21;1.05;;;0.50;;
36709;SDS011;22694;51.040;3.684;2023-01-06T03:50:15;0.70;;;0.40;;
36709;SDS011;22694;51.040;3.684;2023-01-06T03:52:52;1.08;;;0.40;;
36709;SDS011;22694;51.040;3.684;2023-01-06T03:55:24;1.30;;;0.57;;
36709;SDS011;22694;51.040;3.684;2023-01-06T03:57:55;0.63;;;0.38;;
36709;SDS011;22694;51.040;3.684;2023-01-06T04:00:27;0.75;;;0.40;;
36709;SDS011;22694;51.040;3.684;2023-01-06T04:05:22;1.23;;;0.52;;
36709;SDS011;22694;51.040;3.684;2023-01-06T04:07:49;0.50;;;0.38;;
36709;SDS011;22694;51.040;3.684;2023-01-06T04:10:16;0.40;;;0.40;;
36709;SDS011;22694;51.040;3.684;2023-01-06T04:12:43;1.38;;;0.50;;
36709;SDS011;22694;51.040;3.684;2023-01-06T04:15:17;0.63;;;0.45;;
36709;SDS011;22694;51.040;3.684;2023-01-06T04:17:47;0.38;;;0.25;;
36709;SDS011;22694;51.040;3.684;2023-01-06T04:20:14;0.52;;;0.40;;
36709;SDS011;22694;51.040;3.684;2023-01-06T04:22:45;1.05;;;0.40;;
36709;SDS011;22694;51.040;3.684;2023-01-06T04:25:11;0.65;;;0.30;;
36709;SDS011;22694;51.040;3.684;2023-01-06T04:27:37;0.50;;;0.40;;
36709;SDS011;22694;51.040;3.684;2023-01-06T04:30:03;0.63;;;0.22;;
36709;SDS011;22694;51.040;3.684;2023-01-06T04:32:30;1.13;;;0.32;;
36709;SDS011;22694;51.040;3.684;2023-01-06T04:34:55;1.17;;;0.32;;
36709;SDS011;22694;51.040;3.684;2023-01-06T04:37:21;1.27;;;0.45;;
36709;SDS011;22694;51.040;3.684;2023-01-06T04:39:47;0.85;;;0.50;;
36709;SDS011;22694;51.040;3.684;2023-01-06T04:42:13;0.65;;;0.40;;
36709;SDS011;22694;51.040;3.684;2023-01-06T04:44:38;0.70;;;0.40;;
36709;SDS011;22694;51.040;3.684;2023-01-06T04:47:06;0.70;;;0.30;;
36709;SDS011;22694;51.040;3.684;2023-01-06T04:49:32;0.30;;;0.30;;
36709;SDS011;22694;51.040;3.684;2023-01-06T04:51:57;1.10;;;0.43;;
36709;SDS011;22694;51.040;3.684;2023-01-06T04:54:23;0.60;;;0.40;;
36709;SDS011;22694;51.040;3.684;2023-01-06T04:56:48;0.52;;;0.30;;
36709;SDS011;22694;51.040;3.684;2023-01-06T04:59:14;0.93;;;0.50;;
36709;SDS011;22694;51.040;3.684;2023-01-06T05:01:40;0.60;;;0.32;;
36709;SDS011;22694;51.040;3.684;2023-01-06T05:04:05;0.57;;;0.30;;
36709;SDS011;22694;51.040;3.684;2023-01-06T05:06:31;0.30;;;0.22;;
36709;SDS011;22694;51.040;3.684;2023-01-06T05:08:57;0.32;;;0.20;;
36709;SDS011;22694;51.040;3.684;2023-01-06T05:11:23;0.40;;;0.30;;
36709;SDS011;22694;51.040;3.684;2023-01-06T05:13:50;1.33;;;0.40;;
36709;SDS011;22694;51.040;3.684;2023-01-06T05:16:17;0.52;;;0.50;;
36709;SDS011;22694;51.040;3.684;2023-01-06T05:18:46;0.30;;;0.20;;
36709;SDS011;22694;51.040;3.684;2023-01-06T05:21:12;0.90;;;0.55;;
36709;SDS011;22694;51.040;3.684;2023-01-06T05:23:38;0.70;;;0.20;;
36709;SDS011;22694;51.040;3.684;2023-01-06T05:26:04;1.15;;;0.40;;
36709;SDS011;22694;51.040;3.684;2023-01-06T05:28:30;0.30;;;0.30;;
36709;SDS011;22694;51.040;3.684;2023-01-06T05:31:00;1.27;;;0.20;;
36709;SDS011;22694;51.040;3.684;2023-01-06T05:33:27;0.57;;;0.30;;
36709;SDS011;22694;51.040;3.684;2023-01-06T05:36:00;0.30;;;0.30;;
36709;SDS011;22694;51.040;3.684;2023-01-06T05:38:27;0.43;;;0.40;;
36709;SDS011;22694;51.040;3.684;2023-01-06T05:40:53;1.45;;;0.35;;
36709;SDS011;22694;51.040;3.684;2023-01-06T05:43:20;0.77;;;0.30;;
36709;SDS011;22694;51.040;3.684;2023-01-06T05:45:47;0.10;;;0.10;;
36709;SDS011;22694;51.040;3.684;2023-01-06T05:48:13;1.42;;;0.40;;
36709;SDS011;22694;51.040;3.684;2023-01-06T05:50:39;0.28;;;0.20;;
36709;SDS011;22694;51.040;3.684;2023-01-06T05:53:04;0.50;;;0.30;;
36709;SDS011;22694;51.040;3.684;2023-01-06T05:55:30;0.90;;;0.40;;
36709;SDS011;22694;51.040;3.684;2023-01-06T05:57:56;0.55;;;0.20;;
36709;SDS011;22694;51.040;3.684;2023-01-06T06:00:21;0.50;;;0.40;;
36709;SDS011;22694;51.040;3.684;2023-01-06T06:02:47;1.48;;;0.30;;
36709;SDS011;22694;51.040;3.684;2023-01-06T06:05:13;0.35;;;0.25;;
36709;SDS011;22694;51.040;3.684;2023-01-06T06:07:39;0.20;;;0.17;;
36709;SDS011;22694;51.040;3.684;2023-01-06T06:10:04;1.02;;;0.30;;
36709;SDS011;22694;51.040;3.684;2023-01-06T06:12:30;1.00;;;0.25;;
36709;SDS011;22694;51.040;3.684;2023-01-06T06:14:57;0.55;;;0.30;;
36709;SDS011;22694;51.040;3.684;2023-01-06T06:17:22;1.15;;;0.30;;
36709;SDS011;22694;51.040;3.684;2023-01-06T06:19:49;0.13;;;0.13;;
36709;SDS011;22694;51.040;3.684;2023-01-06T06:22:15;0.85;;;0.20;;
36709;SDS011;22694;51.040;3.684;2023-01-06T06:24:40;1.58;;;0.35;;
36709;SDS011;22694;51.040;3.684;2023-01-06T06:27:06;0.47;;;0.30;;
36709;SDS011;22694;51.040;3.684;2023-01-06T06:29:32;1.02;;;0.32;;
36709;SDS011;22694;51.040;3.684;2023-01-06T06:31:57;1.70;;;0.28;;
36709;SDS011;22694;51.040;3.684;2023-01-06T06:34:23;0.15;;;0.13;;
36709;SDS011;22694;51.040;3.684;2023-01-06T06:36:48;0.68;;;0.25;;
36709;SDS011;22694;51.040;3.684;2023-01-06T06:39:14;1.13;;;0.20;;
36709;SDS011;22694;51.040;3.684;2023-01-06T06:41:40;0.80;;;0.20;;
36709;SDS011;22694;51.040;3.684;2023-01-06T06:44:05;0.30;;;0.20;;
36709;SDS011;22694;51.040;3.684;2023-01-06T06:46:31;1.55;;;0.60;;
36709;SDS011;22694;51.040;3.684;2023-01-06T06:48:57;1.20;;;0.30;;
36709;SDS011;22694;51.040;3.684;2023-01-06T06:51:22;0.22;;;0.20;;
36709;SDS011;22694;51.040;3.684;2023-01-06T06:53:49;0.50;;;0.30;;
36709;SDS011;22694;51.040;3.684;2023-01-06T06:56:15;1.08;;;0.32;;
36709;SDS011;22694;51.040;3.684;2023-01-06T06:58:42;0.25;;;0.20;;
36709;SDS011;22694;51.040;3.684;2023-01-06T07:01:09;1.27;;;0.10;;
36709;SDS011;22694;51.040;3.684;2023-01-06T07:03:36;0.85;;;0.20;;
36709;SDS011;22694;51.040;3.684;2023-01-06T07:06:03;1.08;;;0.30;;
36709;SDS011;22694;51.040;3.684;2023-01-06T07:08:30;1.40;;;0.55;;
36709;SDS011;22694;51.040;3.684;2023-01-06T07:10:59;0.95;;;0.30;;
36709;SDS011;22694;51.040;3.684;2023-01-06T07:13:25;2.35;;;0.40;;
36709;SDS011;22694;51.040;3.684;2023-01-06T07:15:51;1.17;;;0.73;;
36709;SDS011;22694;51.040;3.684;2023-01-06T07:18:17;1.40;;;0.30;;
36709;SDS011;22694;51.040;3.684;2023-01-06T07:20:47;0.10;;;0.10;;
36709;SDS011;22694;51.040;3.684;2023-01-06T07:23:14;0.30;;;0.30;;
36709;SDS011;22694;51.040;3.684;2023-01-06T07:25:40;1.17;;;0.17;;
36709;SDS011;22694;51.040;3.684;2023-01-06T07:28:06;2.10;;;0.20;;
36709;SDS011;22694;51.040;3.684;2023-01-06T07:30:33;0.85;;;0.20;;
36709;SDS011;22694;51.040;3.684;2023-01-06T07:32:59;1.23;;;0.20;;
36709;SDS011;22694;51.040;3.684;2023-01-06T07:35:25;0.50;;;0.30;;
36709;SDS011;22694;51.040;3.684;2023-01-06T07:37:51;0.77;;;0.20;;
36709;SDS011;22694;51.040;3.684;2023-01-06T07:40:17;1.85;;;0.30;;
36709;SDS011;22694;51.040;3.684;2023-01-06T07:42:43;0.80;;;0.57;;
36709;SDS011;22694;51.040;3.684;2023-01-06T07:45:09;2.30;;;0.28;;
36709;SDS011;22694;51.040;3.684;2023-01-06T07:47:35;1.90;;;0.47;;
36709;SDS011;22694;51.040;3.684;2023-01-06T07:50:01;1.10;;;0.70;;
36709;SDS011;22694;51.040;3.684;2023-01-06T07:52:27;3.00;;;0.73;;
36709;SDS011;22694;51.040;3.684;2023-01-06T07:54:53;7.05;;;1.27;;
36709;SDS011;22694;51.040;3.684;2023-01-06T07:57:23;8.18;;;1.95;;
36709;SDS011;22694;51.040;3.684;2023-01-06T07:59:52;5.75;;;1.73;;
36709;SDS011;22694;51.040;3.684;2023-01-06T08:02:18;14.10;;;2.97;;
36709;SDS011;22694;51.040;3.684;2023-01-06T08:04:43;12.77;;;3.00;;
36709;SDS011;22694;51.040;3.684;2023-01-06T08:07:09;13.40;;;2.65;;
36709;SDS011;22694;51.040;3.684;2023-01-06T08:09:36;11.43;;;2.40;;
36709;SDS011;22694;51.040;3.684;2023-01-06T08:12:02;7.70;;;2.00;;
36709;SDS011;22694;51.040;3.684;2023-01-06T08:14:27;6.15;;;2.00;;
36709;SDS011;22694;51.040;3.684;2023-01-06T08:16:53;5.80;;;2.15;;
36709;SDS011;22694;51.040;3.684;2023-01-06T08:19:19;7.47;;;1.98;;
36709;SDS011;22694;51.040;3.684;2023-01-06T08:21:44;6.13;;;1.88;;
36709;SDS011;22694;51.040;3.684;2023-01-06T08:24:10;5.00;;;1.38;;
36709;SDS011;22694;51.040;3.684;2023-01-06T08:26:35;4.57;;;1.33;;
36709;SDS011;22694;51.040;3.684;2023-01-06T08:29:01;6.10;;;1.77;;
36709;SDS011;22694;51.040;3.684;2023-01-06T08:31:27;8.45;;;1.80;;
36709;SDS011;22694;51.040;3.684;2023-01-06T08:33:52;5.25;;;1.52;;
36709;SDS011;22694;51.040;3.684;2023-01-06T08:36:20;7.07;;;1.65;;
36709;SDS011;22694;51.040;3.684;2023-01-06T08:38:48;5.45;;;1.65;;
36709;SDS011;22694;51.040;3.684;2023-01-06T08:41:15;4.10;;;1.63;;
36709;SDS011;22694;51.040;3.684;2023-01-06T08:43:42;5.95;;;2.08;;
36709;SDS011;22694;51.040;3.684;2023-01-06T08:46:10;5.07;;;1.23;;
36709;SDS011;22694;51.040;3.684;2023-01-06T08:48:40;3.58;;;1.30;;
36709;SDS011;22694;51.040;3.684;2023-01-06T08:51:08;3.40;;;1.17;;
36709;SDS011;22694;51.040;3.684;2023-01-06T08:53:37;4.75;;;1.30;;
36709;SDS011;22694;51.040;3.684;2023-01-06T08:56:03;5.20;;;1.60;;
36709;SDS011;22694;51.040;3.684;2023-01-06T08:58:35;5.53;;;1.58;;
36709;SDS011;22694;51.040;3.684;2023-01-06T09:01:00;3.33;;;1.33;;
36709;SDS011;22694;51.040;3.684;2023-01-06T09:03:26;3.85;;;1.45;;
36709;SDS011;22694;51.040;3.684;2023-01-06T09:05:52;2.33;;;0.95;;
36709;SDS011;22694;51.040;3.684;2023-01-06T09:08:19;3.33;;;1.30;;
36709;SDS011;22694;51.040;3.684;2023-01-06T09:10:45;3.65;;;1.42;;
36709;SDS011;22694;51.040;3.684;2023-01-06T09:13:10;3.25;;;1.33;;
36709;SDS011;22694;51.040;3.684;2023-01-06T09:15:39;2.63;;;1.25;;
36709;SDS011;22694;51.040;3.684;2023-01-06T09:18:06;3.55;;;1.13;;
36709;SDS011;22694;51.040;3.684;2023-01-06T09:20:33;3.35;;;1.17;;
36709;SDS011;22694;51.040;3.684;2023-01-06T09:22:59;4.15;;;1.20;;
36709;SDS011;22694;51.040;3.684;2023-01-06T09:25:25;4.85;;;1.27;;
36709;SDS011;22694;51.040;3.684;2023-01-06T09:27:50;3.00;;;1.02;;
36709;SDS011;22694;51.040;3.684;2023-01-06T09:30:16;5.03;;;1.42;;
36709;SDS011;22694;51.040;3.684;2023-01-06T09:32:42;3.70;;;1.00;;
36709;SDS011;22694;51.040;3.684;2023-01-06T09:35:07;2.67;;;0.95;;
36709;SDS011;22694;51.040;3.684;2023-01-06T09:37:34;3.35;;;1.20;;
36709;SDS011;22694;51.040;3.684;2023-01-06T09:39:59;3.33;;;1.13;;
36709;SDS011;22694;51.040;3.684;2023-01-06T09:42:39;2.35;;;1.02;;
36709;SDS011;22694;51.040;3.684;2023-01-06T09:45:11;2.22;;;1.02;;
36709;SDS011;22694;51.040;3.684;2023-01-06T09:47:59;2.25;;;0.73;;
36709;SDS011;22694;51.040;3.684;2023-01-06T09:50:31;1.55;;;0.80;;
36709;SDS011;22694;51.040;3.684;2023-01-06T09:53:02;3.85;;;1.00;;
36709;SDS011;22694;51.040;3.684;2023-01-06T09:55:56;1.92;;;0.77;;
36709;SDS011;22694;51.040;3.684;2023-01-06T09:59:07;1.88;;;1.00;;
36709;SDS011;22694;51.040;3.684;2023-01-06T10:01:44;2.50;;;1.08;;
36709;SDS011;22694;51.040;3.684;2023-01-06T10:07:26;1.80;;;0.93;;
36709;SDS011;22694;51.040;3.684;2023-01-06T10:10:08;2.63;;;0.90;;
36709;SDS011;22694;51.040;3.684;2023-01-06T10:21:32;2.70;;;1.08;;
36709;SDS011;22694;51.040;3.684;2023-01-06T10:24:20;1.65;;;1.05;;
36709;SDS011;22694;51.040;3.684;2023-01-06T10:29:53;1.90;;;0.98;;
36709;SDS011;22694;51.040;3.684;2023-01-06T10:32:20;1.65;;;1.02;;
36709;SDS011;22694;51.040;3.684;2023-01-06T10:34:47;2.35;;;1.02;;
36709;SDS011;22694;51.040;3.684;2023-01-06T10:40:23;1.48;;;0.73;;
36709;SDS011;22694;51.040;3.684;2023-01-06T10:42:58;1.42;;;0.85;;
36709;SDS011;22694;51.040;3.684;2023-01-06T10:48:04;2.53;;;1.00;;
36709;SDS011;22694;51.040;3.684;2023-01-06T10:50:34;3.58;;;1.05;;
36709;SDS011;22694;51.040;3.684;2023-01-06T10:52:59;2.42;;;0.90;;
36709;SDS011;22694;51.040;3.684;2023-01-06T11:01:11;1.40;;;0.90;;
36709;SDS011;22694;51.040;3.684;2023-01-06T11:03:41;1.23;;;1.02;;
36709;SDS011;22694;51.040;3.684;2023-01-06T11:06:13;2.67;;;1.00;;
36709;SDS011;22694;51.040;3.684;2023-01-06T11:08:51;1.60;;;1.00;;
36709;SDS011;22694;51.040;3.684;2023-01-06T11:11:17;2.08;;;0.85;;
36709;SDS011;22694;51.040;3.684;2023-01-06T11:13:54;1.67;;;0.85;;
36709;SDS011;22694;51.040;3.684;2023-01-06T11:16:29;2.13;;;0.68;;
36709;SDS011;22694;51.040;3.684;2023-01-06T11:18:57;2.45;;;0.98;;
36709;SDS011;22694;51.040;3.684;2023-01-06T11:21:39;1.38;;;0.82;;
36709;SDS011;22694;51.040;3.684;2023-01-06T11:24:17;2.28;;;0.95;;
36709;SDS011;22694;51.040;3.684;2023-01-06T11:26:49;3.78;;;0.90;;
36709;SDS011;22694;51.040;3.684;2023-01-06T11:29:31;1.88;;;1.00;;
36709;SDS011;22694;51.040;3.684;2023-01-06T11:32:00;0.80;;;0.70;;
36709;SDS011;22694;51.040;3.684;2023-01-06T11:34:37;2.13;;;0.90;;
36709;SDS011;22694;51.040;3.684;2023-01-06T11:37:03;3.83;;;1.10;;
36709;SDS011;22694;51.040;3.684;2023-01-06T11:39:33;1.90;;;1.17;;
36709;SDS011;22694;51.040;3.684;2023-01-06T11:42:07;3.78;;;1.13;;
36709;SDS011;22694;51.040;3.684;2023-01-06T11:44:37;2.85;;;0.80;;
36709;SDS011;22694;51.040;3.684;2023-01-06T11:47:06;1.00;;;0.70;;
36709;SDS011;22694;51.040;3.684;2023-01-06T11:49:55;1.92;;;0.95;;
36709;SDS011;22694;51.040;3.684;2023-01-06T11:52:32;1.75;;;0.88;;
36709;SDS011;22694;51.040;3.684;2023-01-06T12:05:50;1.13;;;0.80;;
36709;SDS011;22694;51.040;3.684;2023-01-06T12:13:46;1.27;;;1.08;;
36709;SDS011;22694;51.040;3.684;2023-01-06T12:16:13;1.67;;;0.75;;
36709;SDS011;22694;51.040;3.684;2023-01-06T12:18:47;2.25;;;0.98;;
36709;SDS011;22694;51.040;3.684;2023-01-06T12:21:17;1.98;;;0.77;;
36709;SDS011;22694;51.040;3.684;2023-01-06T12:23:59;2.70;;;0.95;;
36709;SDS011;22694;51.040;3.684;2023-01-06T12:26:28;2.55;;;0.70;;
36709;SDS011;22694;51.040;3.684;2023-01-06T12:28:55;2.58;;;0.77;;
36709;SDS011;22694;51.040;3.684;2023-01-06T12:31:31;2.20;;;1.10;;
36709;SDS011;22694;51.040;3.684;2023-01-06T12:34:04;1.48;;;1.00;;
36709;SDS011;22694;51.040;3.684;2023-01-06T12:36:36;1.15;;;0.80;;
36709;SDS011;22694;51.040;3.684;2023-01-06T12:39:11;1.83;;;1.00;;
36709;SDS011;22694;51.040;3.684;2023-01-06T12:41:46;4.18;;;0.90;;
36709;SDS011;22694;51.040;3.684;2023-01-06T12:47:25;1.67;;;1.02;;
36709;SDS011;22694;51.040;3.684;2023-01-06T12:50:20;2.55;;;1.05;;
36709;SDS011;22694;51.040;3.684;2023-01-06T12:53:03;1.83;;;0.80;;
36709;SDS011;22694;51.040;3.684;2023-01-06T12:58:25;2.50;;;0.98;;
36709;SDS011;22694;51.040;3.684;2023-01-06T13:01:06;1.17;;;0.70;;
36709;SDS011;22694;51.040;3.684;2023-01-06T13:09:16;1.20;;;0.55;;
36709;SDS011;22694;51.040;3.684;2023-01-06T13:17:57;2.72;;;0.80;;
36709;SDS011;22694;51.040;3.684;2023-01-06T13:20:50;1.00;;;0.70;;
36709;SDS011;22694;51.040;3.684;2023-01-06T13:23:40;1.58;;;1.00;;
36709;SDS011;22694;51.040;3.684;2023-01-06T13:37:34;1.25;;;0.80;;
36709;SDS011;22694;51.040;3.684;2023-01-06T13:40:20;2.25;;;0.98;;
36709;SDS011;22694;51.040;3.684;2023-01-06T13:43:18;0.85;;;0.50;;
36709;SDS011;22694;51.040;3.684;2023-01-06T13:45:53;1.20;;;0.82;;
36709;SDS011;22694;51.040;3.684;2023-01-06T13:48:24;1.00;;;0.90;;
36709;SDS011;22694;51.040;3.684;2023-01-06T13:50:52;1.77;;;0.80;;
36709;SDS011;22694;51.040;3.684;2023-01-06T13:53:19;1.88;;;0.65;;
36709;SDS011;22694;51.040;3.684;2023-01-06T13:55:48;0.98;;;0.80;;
36709;SDS011;22694;51.040;3.684;2023-01-06T13:58:39;0.90;;;0.80;;
36709;SDS011;22694;51.040;3.684;2023-01-06T14:01:10;1.55;;;0.70;;
36709;SDS011;22694;51.040;3.684;2023-01-06T14:03:53;1.48;;;0.80;;
36709;SDS011;22694;51.040;3.684;2023-01-06T14:06:45;0.82;;;0.73;;
36709;SDS011;22694;51.040;3.684;2023-01-06T14:09:15;1.33;;;0.50;;
36709;SDS011;22694;51.040;3.684;2023-01-06T14:11:42;1.25;;;0.60;;
36709;SDS011;22694;51.040;3.684;2023-01-06T14:16:47;0.85;;;0.55;;
36709;SDS011;22694;51.040;3.684;2023-01-06T14:21:45;1.65;;;0.80;;
36709;SDS011;22694;51.040;3.684;2023-01-06T14:24:24;1.70;;;0.82;;
36709;SDS011;22694;51.040;3.684;2023-01-06T14:32:04;1.58;;;0.75;;
36709;SDS011;22694;51.040;3.684;2023-01-06T14:34:36;1.77;;;0.90;;
36709;SDS011;22694;51.040;3.684;2023-01-06T14:37:09;2.53;;;0.98;;
36709;SDS011;22694;51.040;3.684;2023-01-06T14:39:38;1.15;;;0.60;;
36709;SDS011;22694;51.040;3.684;2023-01-06T14:42:07;0.70;;;0.70;;
36709;SDS011;22694;51.040;3.684;2023-01-06T14:44:49;0.75;;;0.60;;
36709;SDS011;22694;51.040;3.684;2023-01-06T14:47:20;1.25;;;0.63;;
36709;SDS011;22694;51.040;3.684;2023-01-06T14:50:37;1.05;;;0.70;;
36709;SDS011;22694;51.040;3.684;2023-01-06T14:52:53;0.60;;;0.60;;
36709;SDS011;22694;51.040;3.684;2023-01-06T14:55:21;1.75;;;0.70;;
36709;SDS011;22694;51.040;3.684;2023-01-06T14:57:49;0.55;;;0.55;;
36709;SDS011;22694;51.040;3.684;2023-01-06T15:00:21;0.82;;;0.52;;
36709;SDS011;22694;51.040;3.684;2023-01-06T15:02:50;0.70;;;0.45;;
36709;SDS011;22694;51.040;3.684;2023-01-06T15:05:21;1.45;;;0.60;;
36709;SDS011;22694;51.040;3.684;2023-01-06T15:07:58;1.50;;;0.50;;
36709;SDS011;22694;51.040;3.684;2023-01-06T15:10:27;0.70;;;0.60;;
36709;SDS011;22694;51.040;3.684;2023-01-06T15:12:54;0.95;;;0.60;;
36709;SDS011;22694;51.040;3.684;2023-01-06T15:15:21;0.40;;;0.40;;
36709;SDS011;22694;51.040;3.684;2023-01-06T15:17:52;0.70;;;0.52;;
36709;SDS011;22694;51.040;3.684;2023-01-06T15:20:21;1.00;;;0.50;;
36709;SDS011;22694;51.040;3.684;2023-01-06T15:22:51;0.55;;;0.40;;
36709;SDS011;22694;51.040;3.684;2023-01-06T15:25:21;1.17;;;0.57;;
36709;SDS011;22694;51.040;3.684;2023-01-06T15:27:49;2.03;;;0.52;;
36709;SDS011;22694;51.040;3.684;2023-01-06T15:30:19;1.55;;;0.40;;
36709;SDS011;22694;51.040;3.684;2023-01-06T15:32:46;0.70;;;0.55;;
36709;SDS011;22694;51.040;3.684;2023-01-06T15:35:15;0.30;;;0.20;;
36709;SDS011;22694;51.040;3.684;2023-01-06T15:38:38;0.50;;;0.50;;
36709;SDS011;22694;51.040;3.684;2023-01-06T15:40:56;0.88;;;0.70;;
36709;SDS011;22694;51.040;3.684;2023-01-06T15:43:24;0.60;;;0.40;;
36709;SDS011;22694;51.040;3.684;2023-01-06T15:45:58;0.60;;;0.60;;
36709;SDS011;22694;51.040;3.684;2023-01-06T15:48:27;1.25;;;0.50;;
36709;SDS011;22694;51.040;3.684;2023-01-06T15:50:55;0.40;;;0.40;;
36709;SDS011;22694;51.040;3.684;2023-01-06T15:53:22;1.85;;;0.60;;
36709;SDS011;22694;51.040;3.684;2023-01-06T15:55:52;1.33;;;0.50;;
36709;SDS011;22694;51.040;3.684;2023-01-06T16:01:04;0.63;;;0.40;;
36709;SDS011;22694;51.040;3.684;2023-01-06T16:03:35;0.75;;;0.60;;
36709;SDS011;22694;51.040;3.684;2023-01-06T16:06:06;2.38;;;1.40;;
36709;SDS011;22694;51.040;3.684;2023-01-06T16:08:34;2.72;;;2.10;;
36709;SDS011;22694;51.040;3.684;2023-01-06T16:11:11;26.98;;;17.30;;
36709;SDS011;22694;51.040;3.684;2023-01-06T16:14:03;26.15;;;14.30;;
36709;SDS011;22694;51.040;3.684;2023-01-06T16:16:32;15.48;;;10.10;;
36709;SDS011;22694;51.040;3.684;2023-01-06T16:19:07;13.77;;;8.40;;
36709;SDS011;22694;51.040;3.684;2023-01-06T16:21:35;9.88;;;6.10;;
36709;SDS011;22694;51.040;3.684;2023-01-06T16:24:04;9.77;;;5.13;;
36709;SDS011;22694;51.040;3.684;2023-01-06T16:26:31;6.30;;;4.07;;
36709;SDS011;22694;51.040;3.684;2023-01-06T16:29:19;7.68;;;4.07;;
36709;SDS011;22694;51.040;3.684;2023-01-06T16:31:52;7.35;;;4.13;;
36709;SDS011;22694;51.040;3.684;2023-01-06T16:36:50;9.63;;;4.20;;
36709;SDS011;22694;51.040;3.684;2023-01-06T16:39:18;6.72;;;3.50;;
36709;SDS011;22694;51.040;3.684;2023-01-06T16:42:05;6.65;;;3.00;;
36709;SDS011;22694;51.040;3.684;2023-01-06T16:45:01;4.78;;;2.53;;
36709;SDS011;22694;51.040;3.684;2023-01-06T16:47:31;7.00;;;3.42;;
36709;SDS011;22694;51.040;3.684;2023-01-06T16:49:57;6.70;;;3.30;;
36709;SDS011;22694;51.040;3.684;2023-01-06T16:52:26;5.95;;;3.20;;
36709;SDS011;22694;51.040;3.684;2023-01-06T16:54:52;3.72;;;2.70;;
36709;SDS011;22694;51.040;3.684;2023-01-06T16:57:21;6.25;;;2.80;;
36709;SDS011;22694;51.040;3.684;2023-01-06T16:59:47;5.65;;;2.38;;
36709;SDS011;22694;51.040;3.684;2023-01-06T17:02:16;6.95;;;2.50;;
36709;SDS011;22694;51.040;3.684;2023-01-06T17:04:42;3.97;;;2.17;;
36709;SDS011;22694;51.040;3.684;2023-01-06T17:07:10;3.63;;;2.15;;
36709;SDS011;22694;51.040;3.684;2023-01-06T17:09:38;2.47;;;1.98;;
36709;SDS011;22694;51.040;3.684;2023-01-06T17:12:09;3.67;;;2.15;;
36709;SDS011;22694;51.040;3.684;2023-01-06T17:14:57;3.50;;;1.80;;
36709;SDS011;22694;51.040;3.684;2023-01-06T17:17:23;2.70;;;1.60;;